sensor_id;sensor_type;location;lat;lon;timestamp;P1;durP1;ratioP1;P2;durP2;ratioP2
74523;SDS011;63074;44.696;10.358;2023-02-28T00:00:49;13.35;;;6.38;;
74523;SDS011;63074;44.696;10.358;2023-02-28T00:03:15;13.85;;;6.55;;
74523;SDS011;63074;44.696;10.358;2023-02-28T00:05:42;12.07;;;6.53;;
74523;SDS011;63074;44.696;10.358;2023-02-28T00:08:08;11.88;;;6.00;;
74523;SDS011;63074;44.696;10.358;2023-02-28T00:10:35;11.85;;;6.50;;
74523;SDS011;63074;44.696;10.358;2023-02-28T00:13:05;13.65;;;6.57;;
74523;SDS011;63074;44.696;10.358;2023-02-28T00:15:32;12.43;;;6.30;;
74523;SDS011;63074;44.696;10.358;2023-02-28T00:17:58;12.55;;;6.20;;
74523;SDS011;63074;44.696;10.358;2023-02-28T00:20:25;12.82;;;5.95;;
74523;SDS011;63074;44.696;10.358;2023-02-28T00:22:52;13.40;;;6.65;;
74523;SDS011;63074;44.696;10.358;2023-02-28T00:25:20;13.02;;;6.80;;
74523;SDS011;63074;44.696;10.358;2023-02-28T00:27:48;12.73;;;6.22;;
74523;SDS011;63074;44.696;10.358;2023-02-28T00:30:16;9.52;;;5.82;;
74523;SDS011;63074;44.696;10.358;2023-02-28T00:32:43;11.90;;;6.30;;
74523;SDS011;63074;44.696;10.358;2023-02-28T00:35:10;10.95;;;5.60;;
74523;SDS011;63074;44.696;10.358;2023-02-28T00:37:37;14.75;;;6.45;;
74523;SDS011;63074;44.696;10.358;2023-02-28T00:40:04;13.20;;;6.78;;
74523;SDS011;63074;44.696;10.358;2023-02-28T00:42:31;13.50;;;5.57;;
74523;SDS011;63074;44.696;10.358;2023-02-28T00:44:58;10.23;;;5.63;;
74523;SDS011;63074;44.696;10.358;2023-02-28T00:47:25;10.15;;;5.50;;
74523;SDS011;63074;44.696;10.358;2023-02-28T00:49:51;11.20;;;5.53;;
74523;SDS011;63074;44.696;10.358;2023-02-28T00:52:17;11.48;;;6.00;;
74523;SDS011;63074;44.696;10.358;2023-02-28T00:54:43;11.13;;;5.35;;
74523;SDS011;63074;44.696;10.358;2023-02-28T00:57:09;12.80;;;6.85;;
74523;SDS011;63074;44.696;10.358;2023-02-28T00:59:35;9.43;;;5.28;;
74523;SDS011;63074;44.696;10.358;2023-02-28T01:02:02;12.38;;;5.60;;
74523;SDS011;63074;44.696;10.358;2023-02-28T01:04:28;10.05;;;5.68;;
74523;SDS011;63074;44.696;10.358;2023-02-28T01:06:54;9.55;;;5.38;;
74523;SDS011;63074;44.696;10.358;2023-02-28T01:09:20;14.98;;;6.30;;
74523;SDS011;63074;44.696;10.358;2023-02-28T01:11:46;10.13;;;5.43;;
74523;SDS011;63074;44.696;10.358;2023-02-28T01:14:13;16.15;;;5.93;;
74523;SDS011;63074;44.696;10.358;2023-02-28T01:16:41;11.40;;;6.10;;
74523;SDS011;63074;44.696;10.358;2023-02-28T01:19:07;13.13;;;5.82;;
74523;SDS011;63074;44.696;10.358;2023-02-28T01:21:34;10.23;;;5.32;;
74523;SDS011;63074;44.696;10.358;2023-02-28T01:24:01;11.68;;;6.72;;
74523;SDS011;63074;44.696;10.358;2023-02-28T01:26:28;13.55;;;6.10;;
74523;SDS011;63074;44.696;10.358;2023-02-28T01:28:54;11.88;;;5.95;;
74523;SDS011;63074;44.696;10.358;2023-02-28T01:31:21;11.95;;;6.47;;
74523;SDS011;63074;44.696;10.358;2023-02-28T01:33:48;11.32;;;5.75;;
74523;SDS011;63074;44.696;10.358;2023-02-28T01:36:16;10.90;;;6.03;;
74523;SDS011;63074;44.696;10.358;2023-02-28T01:38:47;12.43;;;5.95;;
74523;SDS011;63074;44.696;10.358;2023-02-28T01:41:16;12.23;;;5.72;;
74523;SDS011;63074;44.696;10.358;2023-02-28T01:46:13;9.98;;;5.47;;
74523;SDS011;63074;44.696;10.358;2023-02-28T01:48:42;11.80;;;5.65;;
74523;SDS011;63074;44.696;10.358;2023-02-28T01:51:39;17.50;;;6.82;;
74523;SDS011;63074;44.696;10.358;2023-02-28T01:54:27;10.15;;;5.00;;
74523;SDS011;63074;44.696;10.358;2023-02-28T01:56:58;13.73;;;6.22;;
74523;SDS011;63074;44.696;10.358;2023-02-28T01:59:33;14.35;;;6.50;;
74523;SDS011;63074;44.696;10.358;2023-02-28T02:02:16;10.10;;;5.85;;
74523;SDS011;63074;44.696;10.358;2023-02-28T02:04:51;8.70;;;5.63;;
74523;SDS011;63074;44.696;10.358;2023-02-28T02:07:19;10.05;;;5.20;;
74523;SDS011;63074;44.696;10.358;2023-02-28T02:09:46;12.45;;;5.10;;
74523;SDS011;63074;44.696;10.358;2023-02-28T02:12:18;11.27;;;5.85;;
74523;SDS011;63074;44.696;10.358;2023-02-28T02:17:49;11.68;;;5.88;;
74523;SDS011;63074;44.696;10.358;2023-02-28T02:23:50;11.02;;;5.70;;
74523;SDS011;63074;44.696;10.358;2023-02-28T02:29:33;15.18;;;5.57;;
74523;SDS011;63074;44.696;10.358;2023-02-28T02:32:40;12.52;;;5.68;;
74523;SDS011;63074;44.696;10.358;2023-02-28T02:40:23;10.18;;;6.22;;
74523;SDS011;63074;44.696;10.358;2023-02-28T02:45:56;9.30;;;5.35;;
74523;SDS011;63074;44.696;10.358;2023-02-28T02:48:30;13.85;;;5.78;;
74523;SDS011;63074;44.696;10.358;2023-02-28T02:50:59;12.80;;;5.97;;
74523;SDS011;63074;44.696;10.358;2023-02-28T02:55:57;11.10;;;6.18;;
74523;SDS011;63074;44.696;10.358;2023-02-28T02:58:27;10.65;;;5.45;;
74523;SDS011;63074;44.696;10.358;2023-02-28T03:00:57;11.50;;;6.20;;
74523;SDS011;63074;44.696;10.358;2023-02-28T03:03:27;12.63;;;7.35;;
74523;SDS011;63074;44.696;10.358;2023-02-28T03:05:56;10.88;;;5.68;;
74523;SDS011;63074;44.696;10.358;2023-02-28T03:08:24;13.75;;;6.95;;
74523;SDS011;63074;44.696;10.358;2023-02-28T03:10:52;9.63;;;4.88;;
74523;SDS011;63074;44.696;10.358;2023-02-28T03:16:42;11.57;;;6.45;;
74523;SDS011;63074;44.696;10.358;2023-02-28T03:27:18;11.43;;;6.07;;
74523;SDS011;63074;44.696;10.358;2023-02-28T03:30:02;10.38;;;6.20;;
74523;SDS011;63074;44.696;10.358;2023-02-28T03:35:17;9.55;;;5.50;;
74523;SDS011;63074;44.696;10.358;2023-02-28T03:37:48;10.20;;;6.38;;
74523;SDS011;63074;44.696;10.358;2023-02-28T03:40:19;10.75;;;5.90;;
74523;SDS011;63074;44.696;10.358;2023-02-28T03:42:54;11.77;;;6.55;;
74523;SDS011;63074;44.696;10.358;2023-02-28T03:45:28;11.50;;;6.07;;
74523;SDS011;63074;44.696;10.358;2023-02-28T03:48:01;10.35;;;6.13;;
74523;SDS011;63074;44.696;10.358;2023-02-28T03:51:01;10.07;;;5.82;;
74523;SDS011;63074;44.696;10.358;2023-02-28T03:56:14;8.60;;;5.93;;
74523;SDS011;63074;44.696;10.358;2023-02-28T03:58:54;11.88;;;5.85;;
74523;SDS011;63074;44.696;10.358;2023-02-28T04:01:34;10.93;;;6.32;;
74523;SDS011;63074;44.696;10.358;2023-02-28T04:04:04;10.88;;;5.93;;
74523;SDS011;63074;44.696;10.358;2023-02-28T04:06:31;10.63;;;6.47;;
74523;SDS011;63074;44.696;10.358;2023-02-28T04:08:59;10.57;;;6.03;;
74523;SDS011;63074;44.696;10.358;2023-02-28T04:11:33;10.45;;;6.25;;
74523;SDS011;63074;44.696;10.358;2023-02-28T04:14:00;10.70;;;6.13;;
74523;SDS011;63074;44.696;10.358;2023-02-28T04:16:28;10.07;;;5.95;;
74523;SDS011;63074;44.696;10.358;2023-02-28T04:18:54;10.35;;;6.20;;
74523;SDS011;63074;44.696;10.358;2023-02-28T04:21:29;13.35;;;5.75;;
74523;SDS011;63074;44.696;10.358;2023-02-28T04:23:56;9.68;;;5.50;;
74523;SDS011;63074;44.696;10.358;2023-02-28T04:26:25;10.55;;;6.72;;
74523;SDS011;63074;44.696;10.358;2023-02-28T04:31:22;8.45;;;5.30;;
74523;SDS011;63074;44.696;10.358;2023-02-28T04:33:48;10.30;;;5.80;;
74523;SDS011;63074;44.696;10.358;2023-02-28T04:36:14;9.77;;;5.82;;
74523;SDS011;63074;44.696;10.358;2023-02-28T04:38:42;8.98;;;5.72;;
74523;SDS011;63074;44.696;10.358;2023-02-28T04:41:10;10.07;;;5.75;;
74523;SDS011;63074;44.696;10.358;2023-02-28T04:43:39;10.30;;;6.20;;
74523;SDS011;63074;44.696;10.358;2023-02-28T04:46:06;10.95;;;6.10;;
74523;SDS011;63074;44.696;10.358;2023-02-28T04:48:33;9.30;;;6.28;;
74523;SDS011;63074;44.696;10.358;2023-02-28T04:51:05;13.77;;;6.68;;
74523;SDS011;63074;44.696;10.358;2023-02-28T04:53:33;11.27;;;6.28;;
74523;SDS011;63074;44.696;10.358;2023-02-28T04:56:01;9.73;;;5.93;;
74523;SDS011;63074;44.696;10.358;2023-02-28T04:58:27;9.25;;;5.72;;
74523;SDS011;63074;44.696;10.358;2023-02-28T05:00:56;11.65;;;5.68;;
74523;SDS011;63074;44.696;10.358;2023-02-28T05:03:28;11.95;;;6.93;;
74523;SDS011;63074;44.696;10.358;2023-02-28T05:05:54;10.93;;;6.45;;
74523;SDS011;63074;44.696;10.358;2023-02-28T05:08:20;10.80;;;6.15;;
74523;SDS011;63074;44.696;10.358;2023-02-28T05:10:46;12.95;;;6.25;;
74523;SDS011;63074;44.696;10.358;2023-02-28T05:13:12;10.77;;;5.40;;
74523;SDS011;63074;44.696;10.358;2023-02-28T05:15:38;12.40;;;6.93;;
74523;SDS011;63074;44.696;10.358;2023-02-28T05:18:05;11.60;;;6.68;;
74523;SDS011;63074;44.696;10.358;2023-02-28T05:20:33;11.00;;;5.78;;
74523;SDS011;63074;44.696;10.358;2023-02-28T05:22:59;11.68;;;6.07;;
74523;SDS011;63074;44.696;10.358;2023-02-28T05:25:26;10.45;;;6.82;;
74523;SDS011;63074;44.696;10.358;2023-02-28T05:27:52;9.85;;;5.93;;
74523;SDS011;63074;44.696;10.358;2023-02-28T05:30:18;16.73;;;13.45;;
74523;SDS011;63074;44.696;10.358;2023-02-28T05:32:49;11.23;;;7.30;;
74523;SDS011;63074;44.696;10.358;2023-02-28T05:35:16;11.60;;;6.43;;
74523;SDS011;63074;44.696;10.358;2023-02-28T05:37:43;19.98;;;14.75;;
74523;SDS011;63074;44.696;10.358;2023-02-28T05:40:09;10.80;;;6.45;;
74523;SDS011;63074;44.696;10.358;2023-02-28T05:42:36;13.05;;;7.00;;
74523;SDS011;63074;44.696;10.358;2023-02-28T05:45:03;12.40;;;8.30;;
74523;SDS011;63074;44.696;10.358;2023-02-28T05:47:31;11.40;;;7.88;;
74523;SDS011;63074;44.696;10.358;2023-02-28T05:49:58;13.85;;;6.47;;
74523;SDS011;63074;44.696;10.358;2023-02-28T05:52:25;10.52;;;6.20;;
74523;SDS011;63074;44.696;10.358;2023-02-28T05:54:51;11.55;;;6.15;;
74523;SDS011;63074;44.696;10.358;2023-02-28T05:57:17;10.60;;;6.13;;
74523;SDS011;63074;44.696;10.358;2023-02-28T05:59:44;10.95;;;6.50;;
74523;SDS011;63074;44.696;10.358;2023-02-28T06:02:14;11.15;;;6.55;;
74523;SDS011;63074;44.696;10.358;2023-02-28T06:04:41;11.40;;;5.68;;
74523;SDS011;63074;44.696;10.358;2023-02-28T06:07:09;10.02;;;5.82;;
74523;SDS011;63074;44.696;10.358;2023-02-28T06:09:35;10.48;;;5.95;;
74523;SDS011;63074;44.696;10.358;2023-02-28T06:12:02;13.15;;;6.57;;
74523;SDS011;63074;44.696;10.358;2023-02-28T06:14:31;10.88;;;6.97;;
74523;SDS011;63074;44.696;10.358;2023-02-28T06:16:58;11.25;;;7.30;;
74523;SDS011;63074;44.696;10.358;2023-02-28T06:19:25;12.20;;;6.78;;
74523;SDS011;63074;44.696;10.358;2023-02-28T06:21:52;11.82;;;6.40;;
74523;SDS011;63074;44.696;10.358;2023-02-28T06:24:20;12.70;;;6.65;;
74523;SDS011;63074;44.696;10.358;2023-02-28T06:26:47;16.08;;;7.25;;
74523;SDS011;63074;44.696;10.358;2023-02-28T06:29:13;11.05;;;6.60;;
74523;SDS011;63074;44.696;10.358;2023-02-28T06:31:46;12.90;;;6.90;;
74523;SDS011;63074;44.696;10.358;2023-02-28T06:34:13;15.60;;;7.15;;
74523;SDS011;63074;44.696;10.358;2023-02-28T06:36:40;14.38;;;7.13;;
74523;SDS011;63074;44.696;10.358;2023-02-28T06:39:06;11.20;;;7.25;;
74523;SDS011;63074;44.696;10.358;2023-02-28T06:41:34;12.30;;;6.55;;
74523;SDS011;63074;44.696;10.358;2023-02-28T06:44:05;12.75;;;6.65;;
74523;SDS011;63074;44.696;10.358;2023-02-28T06:46:39;13.60;;;7.45;;
74523;SDS011;63074;44.696;10.358;2023-02-28T06:49:06;13.15;;;7.43;;
74523;SDS011;63074;44.696;10.358;2023-02-28T06:51:36;12.38;;;7.25;;
74523;SDS011;63074;44.696;10.358;2023-02-28T06:54:06;13.23;;;7.65;;
74523;SDS011;63074;44.696;10.358;2023-02-28T06:56:35;12.63;;;7.13;;
74523;SDS011;63074;44.696;10.358;2023-02-28T06:59:02;11.50;;;7.65;;
74523;SDS011;63074;44.696;10.358;2023-02-28T07:01:28;12.25;;;6.85;;
74523;SDS011;63074;44.696;10.358;2023-02-28T07:03:56;13.32;;;7.53;;
74523;SDS011;63074;44.696;10.358;2023-02-28T07:06:23;12.57;;;7.68;;
74523;SDS011;63074;44.696;10.358;2023-02-28T07:08:50;16.13;;;7.43;;
74523;SDS011;63074;44.696;10.358;2023-02-28T07:11:18;12.52;;;7.00;;
74523;SDS011;63074;44.696;10.358;2023-02-28T07:13:46;14.20;;;8.20;;
74523;SDS011;63074;44.696;10.358;2023-02-28T07:16:12;13.30;;;8.45;;
74523;SDS011;63074;44.696;10.358;2023-02-28T07:18:38;11.43;;;7.35;;
74523;SDS011;63074;44.696;10.358;2023-02-28T07:21:06;11.88;;;7.03;;
74523;SDS011;63074;44.696;10.358;2023-02-28T07:23:34;12.90;;;7.85;;
74523;SDS011;63074;44.696;10.358;2023-02-28T07:26:00;14.25;;;7.35;;
74523;SDS011;63074;44.696;10.358;2023-02-28T07:28:27;11.90;;;7.80;;
74523;SDS011;63074;44.696;10.358;2023-02-28T07:30:53;16.83;;;8.07;;
74523;SDS011;63074;44.696;10.358;2023-02-28T07:33:19;12.88;;;7.60;;
74523;SDS011;63074;44.696;10.358;2023-02-28T07:35:45;13.50;;;8.13;;
74523;SDS011;63074;44.696;10.358;2023-02-28T07:38:11;13.32;;;8.30;;
74523;SDS011;63074;44.696;10.358;2023-02-28T07:40:38;13.82;;;7.63;;
74523;SDS011;63074;44.696;10.358;2023-02-28T07:43:05;13.15;;;7.43;;
74523;SDS011;63074;44.696;10.358;2023-02-28T07:45:31;15.05;;;7.85;;
74523;SDS011;63074;44.696;10.358;2023-02-28T07:47:59;13.68;;;8.27;;
74523;SDS011;63074;44.696;10.358;2023-02-28T07:50:26;14.20;;;8.45;;
74523;SDS011;63074;44.696;10.358;2023-02-28T07:52:56;17.15;;;8.55;;
74523;SDS011;63074;44.696;10.358;2023-02-28T07:55:25;18.08;;;9.02;;
74523;SDS011;63074;44.696;10.358;2023-02-28T07:57:51;17.27;;;8.15;;
74523;SDS011;63074;44.696;10.358;2023-02-28T08:00:17;18.15;;;8.93;;
74523;SDS011;63074;44.696;10.358;2023-02-28T08:02:44;18.83;;;8.90;;
74523;SDS011;63074;44.696;10.358;2023-02-28T08:05:10;16.40;;;8.18;;
74523;SDS011;63074;44.696;10.358;2023-02-28T08:07:36;15.68;;;8.60;;
74523;SDS011;63074;44.696;10.358;2023-02-28T08:10:02;18.80;;;9.25;;
74523;SDS011;63074;44.696;10.358;2023-02-28T08:12:30;16.17;;;8.50;;
74523;SDS011;63074;44.696;10.358;2023-02-28T08:14:56;15.75;;;8.63;;
74523;SDS011;63074;44.696;10.358;2023-02-28T08:17:22;16.42;;;8.88;;
74523;SDS011;63074;44.696;10.358;2023-02-28T08:19:49;15.80;;;8.68;;
74523;SDS011;63074;44.696;10.358;2023-02-28T08:22:15;14.00;;;8.43;;
74523;SDS011;63074;44.696;10.358;2023-02-28T08:24:41;15.73;;;8.18;;
74523;SDS011;63074;44.696;10.358;2023-02-28T08:27:08;14.98;;;7.93;;
74523;SDS011;63074;44.696;10.358;2023-02-28T08:29:36;16.10;;;9.27;;
74523;SDS011;63074;44.696;10.358;2023-02-28T08:32:04;16.17;;;8.32;;
74523;SDS011;63074;44.696;10.358;2023-02-28T08:34:31;15.75;;;9.13;;
74523;SDS011;63074;44.696;10.358;2023-02-28T08:36:57;18.50;;;9.55;;
74523;SDS011;63074;44.696;10.358;2023-02-28T08:39:23;17.17;;;9.23;;
74523;SDS011;63074;44.696;10.358;2023-02-28T08:41:49;14.65;;;8.98;;
74523;SDS011;63074;44.696;10.358;2023-02-28T08:44:15;13.75;;;8.82;;
74523;SDS011;63074;44.696;10.358;2023-02-28T08:46:42;17.45;;;9.07;;
74523;SDS011;63074;44.696;10.358;2023-02-28T08:49:09;17.65;;;9.75;;
74523;SDS011;63074;44.696;10.358;2023-02-28T08:51:36;14.75;;;7.93;;
74523;SDS011;63074;44.696;10.358;2023-02-28T08:54:03;16.45;;;8.88;;
74523;SDS011;63074;44.696;10.358;2023-02-28T08:56:29;19.48;;;9.75;;
74523;SDS011;63074;44.696;10.358;2023-02-28T08:58:56;16.23;;;8.73;;
74523;SDS011;63074;44.696;10.358;2023-02-28T09:01:23;15.73;;;8.00;;
74523;SDS011;63074;44.696;10.358;2023-02-28T09:03:52;14.75;;;9.27;;
74523;SDS011;63074;44.696;10.358;2023-02-28T09:06:20;13.77;;;8.43;;
74523;SDS011;63074;44.696;10.358;2023-02-28T09:08:48;14.30;;;8.20;;
74523;SDS011;63074;44.696;10.358;2023-02-28T09:11:14;13.43;;;8.00;;
74523;SDS011;63074;44.696;10.358;2023-02-28T09:13:41;14.35;;;8.27;;
74523;SDS011;63074;44.696;10.358;2023-02-28T09:16:08;16.33;;;9.25;;
74523;SDS011;63074;44.696;10.358;2023-02-28T09:18:37;15.55;;;8.82;;
74523;SDS011;63074;44.696;10.358;2023-02-28T09:21:05;16.10;;;8.68;;
74523;SDS011;63074;44.696;10.358;2023-02-28T09:23:32;15.68;;;7.85;;
74523;SDS011;63074;44.696;10.358;2023-02-28T09:25:59;15.63;;;8.82;;
74523;SDS011;63074;44.696;10.358;2023-02-28T09:28:25;17.30;;;8.27;;
74523;SDS011;63074;44.696;10.358;2023-02-28T09:30:52;14.27;;;7.88;;
74523;SDS011;63074;44.696;10.358;2023-02-28T09:33:20;13.32;;;8.23;;
74523;SDS011;63074;44.696;10.358;2023-02-28T09:35:47;14.40;;;7.75;;
74523;SDS011;63074;44.696;10.358;2023-02-28T09:38:14;14.30;;;7.65;;
74523;SDS011;63074;44.696;10.358;2023-02-28T09:40:49;14.65;;;7.95;;
74523;SDS011;63074;44.696;10.358;2023-02-28T09:43:17;18.13;;;9.60;;
74523;SDS011;63074;44.696;10.358;2023-02-28T09:45:48;16.00;;;9.70;;
74523;SDS011;63074;44.696;10.358;2023-02-28T09:48:56;13.43;;;8.38;;
74523;SDS011;63074;44.696;10.358;2023-02-28T09:51:37;15.30;;;8.52;;
74523;SDS011;63074;44.696;10.358;2023-02-28T09:54:20;15.95;;;8.75;;
74523;SDS011;63074;44.696;10.358;2023-02-28T09:57:07;19.15;;;8.55;;
74523;SDS011;63074;44.696;10.358;2023-02-28T10:05:21;15.52;;;8.70;;
74523;SDS011;63074;44.696;10.358;2023-02-28T10:10:44;15.40;;;8.38;;
74523;SDS011;63074;44.696;10.358;2023-02-28T10:13:19;14.50;;;7.93;;
74523;SDS011;63074;44.696;10.358;2023-02-28T10:22:09;13.95;;;8.80;;
74523;SDS011;63074;44.696;10.358;2023-02-28T10:24:45;12.95;;;7.55;;
74523;SDS011;63074;44.696;10.358;2023-02-28T10:27:16;15.10;;;7.95;;
74523;SDS011;63074;44.696;10.358;2023-02-28T10:29:45;14.65;;;8.48;;
74523;SDS011;63074;44.696;10.358;2023-02-28T10:32:17;14.73;;;8.40;;
74523;SDS011;63074;44.696;10.358;2023-02-28T10:35:10;12.77;;;7.65;;
74523;SDS011;63074;44.696;10.358;2023-02-28T10:37:56;14.05;;;8.20;;
74523;SDS011;63074;44.696;10.358;2023-02-28T10:40:27;14.70;;;8.55;;
74523;SDS011;63074;44.696;10.358;2023-02-28T10:42:57;14.02;;;8.77;;
74523;SDS011;63074;44.696;10.358;2023-02-28T10:45:26;14.73;;;7.82;;
74523;SDS011;63074;44.696;10.358;2023-02-28T10:47:59;13.85;;;8.07;;
74523;SDS011;63074;44.696;10.358;2023-02-28T10:50:33;13.70;;;8.00;;
74523;SDS011;63074;44.696;10.358;2023-02-28T10:58:28;13.35;;;7.93;;
74523;SDS011;63074;44.696;10.358;2023-02-28T11:00:57;15.20;;;8.32;;
74523;SDS011;63074;44.696;10.358;2023-02-28T11:03:34;13.70;;;8.00;;
74523;SDS011;63074;44.696;10.358;2023-02-28T11:06:08;16.13;;;8.27;;
74523;SDS011;63074;44.696;10.358;2023-02-28T11:08:49;14.48;;;7.90;;
74523;SDS011;63074;44.696;10.358;2023-02-28T11:11:26;14.38;;;8.27;;
74523;SDS011;63074;44.696;10.358;2023-02-28T11:13:57;14.32;;;7.90;;
74523;SDS011;63074;44.696;10.358;2023-02-28T11:16:42;14.13;;;7.72;;
74523;SDS011;63074;44.696;10.358;2023-02-28T11:19:15;15.13;;;8.82;;
74523;SDS011;63074;44.696;10.358;2023-02-28T11:22:08;12.25;;;8.30;;
74523;SDS011;63074;44.696;10.358;2023-02-28T11:24:42;13.88;;;8.57;;
74523;SDS011;63074;44.696;10.358;2023-02-28T11:29:59;13.38;;;7.78;;
74523;SDS011;63074;44.696;10.358;2023-02-28T11:32:27;15.95;;;8.57;;
74523;SDS011;63074;44.696;10.358;2023-02-28T11:37:37;16.17;;;8.40;;
74523;SDS011;63074;44.696;10.358;2023-02-28T11:40:05;13.15;;;7.88;;
74523;SDS011;63074;44.696;10.358;2023-02-28T11:45:43;15.35;;;8.10;;
74523;SDS011;63074;44.696;10.358;2023-02-28T11:48:24;16.52;;;8.05;;
74523;SDS011;63074;44.696;10.358;2023-02-28T11:56:44;14.18;;;7.80;;
74523;SDS011;63074;44.696;10.358;2023-02-28T12:10:35;15.60;;;8.50;;
74523;SDS011;63074;44.696;10.358;2023-02-28T12:24:01;15.13;;;7.90;;
74523;SDS011;63074;44.696;10.358;2023-02-28T12:26:49;15.68;;;8.73;;
74523;SDS011;63074;44.696;10.358;2023-02-28T12:29:30;15.35;;;8.63;;
74523;SDS011;63074;44.696;10.358;2023-02-28T12:32:32;17.00;;;9.88;;
74523;SDS011;63074;44.696;10.358;2023-02-28T12:40:12;13.25;;;8.48;;
74523;SDS011;63074;44.696;10.358;2023-02-28T12:42:54;15.65;;;8.82;;
74523;SDS011;63074;44.696;10.358;2023-02-28T12:45:27;15.10;;;9.10;;
74523;SDS011;63074;44.696;10.358;2023-02-28T12:48:04;14.73;;;8.85;;
74523;SDS011;63074;44.696;10.358;2023-02-28T12:50:33;19.10;;;10.60;;
74523;SDS011;63074;44.696;10.358;2023-02-28T12:55:35;14.80;;;9.45;;
74523;SDS011;63074;44.696;10.358;2023-02-28T13:09:57;15.98;;;8.90;;
74523;SDS011;63074;44.696;10.358;2023-02-28T13:12:27;14.98;;;8.82;;
74523;SDS011;63074;44.696;10.358;2023-02-28T13:15:27;14.77;;;8.35;;
74523;SDS011;63074;44.696;10.358;2023-02-28T13:17:52;17.27;;;9.00;;
74523;SDS011;63074;44.696;10.358;2023-02-28T13:22:52;16.77;;;9.27;;
74523;SDS011;63074;44.696;10.358;2023-02-28T13:27:58;15.15;;;8.77;;
74523;SDS011;63074;44.696;10.358;2023-02-28T13:33:30;15.60;;;8.73;;
74523;SDS011;63074;44.696;10.358;2023-02-28T13:38:34;14.10;;;9.85;;
74523;SDS011;63074;44.696;10.358;2023-02-28T13:49:29;16.17;;;8.32;;
74523;SDS011;63074;44.696;10.358;2023-02-28T14:03:13;15.68;;;8.65;;
74523;SDS011;63074;44.696;10.358;2023-02-28T14:06:07;14.48;;;8.73;;
74523;SDS011;63074;44.696;10.358;2023-02-28T14:11:48;14.90;;;8.68;;
74523;SDS011;63074;44.696;10.358;2023-02-28T14:15:23;15.05;;;9.25;;
74523;SDS011;63074;44.696;10.358;2023-02-28T14:17:14;18.83;;;9.55;;
74523;SDS011;63074;44.696;10.358;2023-02-28T14:19:44;18.20;;;9.38;;
74523;SDS011;63074;44.696;10.358;2023-02-28T14:33:01;15.73;;;9.77;;
74523;SDS011;63074;44.696;10.358;2023-02-28T14:35:45;17.85;;;10.38;;
74523;SDS011;63074;44.696;10.358;2023-02-28T14:38:52;15.95;;;9.93;;
74523;SDS011;63074;44.696;10.358;2023-02-28T14:44:13;14.68;;;9.48;;
74523;SDS011;63074;44.696;10.358;2023-02-28T14:46:48;16.17;;;10.13;;
74523;SDS011;63074;44.696;10.358;2023-02-28T14:51:45;15.95;;;8.90;;
74523;SDS011;63074;44.696;10.358;2023-02-28T14:54:26;18.23;;;10.05;;
74523;SDS011;63074;44.696;10.358;2023-02-28T14:56:53;15.70;;;9.45;;
74523;SDS011;63074;44.696;10.358;2023-02-28T14:59:24;17.25;;;9.70;;
74523;SDS011;63074;44.696;10.358;2023-02-28T15:04:43;15.63;;;9.93;;
74523;SDS011;63074;44.696;10.358;2023-02-28T15:07:17;16.55;;;9.32;;
74523;SDS011;63074;44.696;10.358;2023-02-28T15:09:43;15.90;;;9.20;;
74523;SDS011;63074;44.696;10.358;2023-02-28T15:12:12;18.13;;;10.20;;
74523;SDS011;63074;44.696;10.358;2023-02-28T15:14:42;19.85;;;10.32;;
74523;SDS011;63074;44.696;10.358;2023-02-28T15:17:22;16.52;;;9.52;;
74523;SDS011;63074;44.696;10.358;2023-02-28T15:19:50;17.35;;;10.27;;
74523;SDS011;63074;44.696;10.358;2023-02-28T15:22:20;16.27;;;9.88;;
74523;SDS011;63074;44.696;10.358;2023-02-28T15:24:56;20.00;;;9.48;;
74523;SDS011;63074;44.696;10.358;2023-02-28T15:27:27;19.20;;;9.88;;
74523;SDS011;63074;44.696;10.358;2023-02-28T15:29:58;16.08;;;9.88;;
74523;SDS011;63074;44.696;10.358;2023-02-28T15:32:30;18.10;;;10.88;;
74523;SDS011;63074;44.696;10.358;2023-02-28T15:34:59;17.92;;;10.77;;
74523;SDS011;63074;44.696;10.358;2023-02-28T15:37:57;17.83;;;9.27;;
74523;SDS011;63074;44.696;10.358;2023-02-28T15:40:29;17.90;;;10.20;;
74523;SDS011;63074;44.696;10.358;2023-02-28T15:43:12;23.50;;;11.65;;
74523;SDS011;63074;44.696;10.358;2023-02-28T15:48:56;18.27;;;9.30;;
74523;SDS011;63074;44.696;10.358;2023-02-28T15:51:43;18.42;;;10.18;;
74523;SDS011;63074;44.696;10.358;2023-02-28T15:54:12;21.95;;;12.35;;
74523;SDS011;63074;44.696;10.358;2023-02-28T15:56:46;20.35;;;9.80;;
74523;SDS011;63074;44.696;10.358;2023-02-28T15:59:18;20.13;;;9.63;;
74523;SDS011;63074;44.696;10.358;2023-02-28T16:07:52;23.33;;;11.50;;
74523;SDS011;63074;44.696;10.358;2023-02-28T16:10:20;20.08;;;10.55;;
74523;SDS011;63074;44.696;10.358;2023-02-28T16:12:51;17.67;;;9.23;;
74523;SDS011;63074;44.696;10.358;2023-02-28T16:15:20;25.45;;;12.40;;
74523;SDS011;63074;44.696;10.358;2023-02-28T16:17:53;35.00;;;15.35;;
74523;SDS011;63074;44.696;10.358;2023-02-28T16:20:22;21.33;;;11.00;;
74523;SDS011;63074;44.696;10.358;2023-02-28T16:22:50;19.23;;;10.85;;
74523;SDS011;63074;44.696;10.358;2023-02-28T16:25:18;17.70;;;9.82;;
74523;SDS011;63074;44.696;10.358;2023-02-28T16:27:47;17.92;;;9.23;;
74523;SDS011;63074;44.696;10.358;2023-02-28T16:32:46;17.02;;;9.90;;
74523;SDS011;63074;44.696;10.358;2023-02-28T16:35:13;17.73;;;8.88;;
74523;SDS011;63074;44.696;10.358;2023-02-28T16:37:40;15.25;;;8.73;;
74523;SDS011;63074;44.696;10.358;2023-02-28T16:40:07;17.85;;;10.05;;
74523;SDS011;63074;44.696;10.358;2023-02-28T16:42:55;18.67;;;9.20;;
74523;SDS011;63074;44.696;10.358;2023-02-28T16:45:24;18.48;;;9.73;;
74523;SDS011;63074;44.696;10.358;2023-02-28T16:47:52;19.00;;;9.15;;
74523;SDS011;63074;44.696;10.358;2023-02-28T16:50:29;18.33;;;9.77;;
74523;SDS011;63074;44.696;10.358;2023-02-28T16:52:57;17.42;;;9.07;;
74523;SDS011;63074;44.696;10.358;2023-02-28T16:55:24;17.50;;;9.63;;
74523;SDS011;63074;44.696;10.358;2023-02-28T16:57:52;18.75;;;10.52;;
74523;SDS011;63074;44.696;10.358;2023-02-28T17:00:24;17.17;;;9.43;;
74523;SDS011;63074;44.696;10.358;2023-02-28T17:02:52;24.27;;;9.75;;
74523;SDS011;63074;44.696;10.358;2023-02-28T17:05:19;16.52;;;8.95;;
74523;SDS011;63074;44.696;10.358;2023-02-28T17:07:46;18.17;;;9.88;;
74523;SDS011;63074;44.696;10.358;2023-02-28T17:12:42;16.92;;;9.20;;
74523;SDS011;63074;44.696;10.358;2023-02-28T17:15:09;17.75;;;10.38;;
74523;SDS011;63074;44.696;10.358;2023-02-28T17:17:36;19.85;;;10.70;;
74523;SDS011;63074;44.696;10.358;2023-02-28T17:20:03;17.95;;;9.95;;
74523;SDS011;63074;44.696;10.358;2023-02-28T17:22:31;18.15;;;10.07;;
74523;SDS011;63074;44.696;10.358;2023-02-28T17:24:57;19.00;;;9.82;;
74523;SDS011;63074;44.696;10.358;2023-02-28T17:27:23;19.88;;;9.50;;
74523;SDS011;63074;44.696;10.358;2023-02-28T17:29:50;17.33;;;9.77;;
74523;SDS011;63074;44.696;10.358;2023-02-28T17:32:16;20.45;;;10.05;;
74523;SDS011;63074;44.696;10.358;2023-02-28T17:34:43;20.40;;;10.57;;
74523;SDS011;63074;44.696;10.358;2023-02-28T17:37:10;18.00;;;9.77;;
74523;SDS011;63074;44.696;10.358;2023-02-28T17:39:36;17.98;;;9.25;;
74523;SDS011;63074;44.696;10.358;2023-02-28T17:42:03;17.65;;;9.77;;
74523;SDS011;63074;44.696;10.358;2023-02-28T17:44:29;17.33;;;10.45;;